Terminal Aerodrome Forecast
Issued by NWS Bismarck, ND

Home | Current Version | Previous Version | Text Only | Print | Product List | Glossary On
Versions: 1 2 3 4 5 6 7 8 9 10 11 12 13 14 15 16 17 18
000
FTUS43 KBIS 262300
TAFISN
TAF
KISN 262333Z 2700/2724 32005KT P6SM -SHRA BKN045 OVC060
     FM270600 34007KT 4SM -SHRA BR BKN020 OVC035
     FM270900 34004KT 3SM BR BKN008 OVC020
     FM271500 31006KT P6SM BKN015
     FM271900 32006KT P6SM SCT015 BKN035=

USA.gov is the U.S. government's official web portal to all federal, state and local government web resources and services.